sensor_id;sensor_type;location;lat;lon;timestamp;pressure;altitude;pressure_sealevel;temperature;humidity
9277;BME280;4676;42.678;23.244;2023-05-11T00:01:54;94246.53;;;9.67;100.00
9277;BME280;4676;42.678;23.244;2023-05-11T00:04:21;94249.00;;;9.68;100.00
9277;BME280;4676;42.678;23.244;2023-05-11T00:06:47;94246.63;;;9.64;100.00
9277;BME280;4676;42.678;23.244;2023-05-11T00:09:15;94241.66;;;9.61;100.00
9277;BME280;4676;42.678;23.244;2023-05-11T00:11:42;94244.25;;;9.59;100.00
9277;BME280;4676;42.678;23.244;2023-05-11T00:14:09;94236.03;;;9.52;100.00
9277;BME280;4676;42.678;23.244;2023-05-11T00:16:35;94251.94;;;9.56;100.00
9277;BME280;4676;42.678;23.244;2023-05-11T00:19:02;94254.47;;;9.56;100.00
9277;BME280;4676;42.678;23.244;2023-05-11T00:21:29;94255.34;;;9.55;100.00
9277;BME280;4676;42.678;23.244;2023-05-11T00:23:56;94227.31;;;9.36;100.00
9277;BME280;4676;42.678;23.244;2023-05-11T00:26:24;94249.81;;;9.44;100.00
9277;BME280;4676;42.678;23.244;2023-05-11T00:28:51;94253.22;;;9.43;100.00
9277;BME280;4676;42.678;23.244;2023-05-11T00:31:18;94250.69;;;9.43;100.00
9277;BME280;4676;42.678;23.244;2023-05-11T00:33:44;94259.28;;;9.39;100.00
9277;BME280;4676;42.678;23.244;2023-05-11T00:36:11;94254.22;;;9.39;100.00
9277;BME280;4676;42.678;23.244;2023-05-11T00:38:38;94252.56;;;9.38;100.00
9277;BME280;4676;42.678;23.244;2023-05-11T00:41:05;94256.81;;;9.36;100.00
9277;BME280;4676;42.678;23.244;2023-05-11T00:43:33;94255.28;;;9.32;100.00
9277;BME280;4676;42.678;23.244;2023-05-11T00:46:01;94259.28;;;9.39;100.00
9277;BME280;4676;42.678;23.244;2023-05-11T00:48:28;94250.84;;;9.38;100.00
9277;BME280;4676;42.678;23.244;2023-05-11T00:50:57;94256.09;;;9.32;100.00
9277;BME280;4676;42.678;23.244;2023-05-11T00:53:24;94252.66;;;9.35;100.00
9277;BME280;4676;42.678;23.244;2023-05-11T00:55:51;94237.72;;;9.27;100.00
9277;BME280;4676;42.678;23.244;2023-05-11T00:58:17;94251.09;;;9.31;100.00
9277;BME280;4676;42.678;23.244;2023-05-11T01:00:46;94248.63;;;9.29;100.00
9277;BME280;4676;42.678;23.244;2023-05-11T01:03:13;94196.97;;;8.85;100.00
9277;BME280;4676;42.678;23.244;2023-05-11T01:05:43;94249.69;;;9.22;100.00
9277;BME280;4676;42.678;23.244;2023-05-11T01:08:17;94248.09;;;9.20;100.00
9277;BME280;4676;42.678;23.244;2023-05-11T01:10:48;94248.22;;;9.15;100.00
9277;BME280;4676;42.678;23.244;2023-05-11T01:13:26;94200.03;;;8.95;100.00
9277;BME280;4676;42.678;23.244;2023-05-11T01:15:56;94252.22;;;9.22;100.00
9277;BME280;4676;42.678;23.244;2023-05-11T01:18:25;94250.72;;;9.17;100.00
9277;BME280;4676;42.678;23.244;2023-05-11T01:20:56;94255.09;;;9.12;100.00
9277;BME280;4676;42.678;23.244;2023-05-11T01:23:42;94255.78;;;9.17;100.00
9277;BME280;4676;42.678;23.244;2023-05-11T01:26:20;94260.06;;;9.15;100.00
9277;BME280;4676;42.678;23.244;2023-05-11T01:29:12;94257.44;;;9.18;100.00
9277;BME280;4676;42.678;23.244;2023-05-11T01:31:47;94255.91;;;9.12;100.00
9277;BME280;4676;42.678;23.244;2023-05-11T01:34:18;94263.34;;;9.18;100.00
9277;BME280;4676;42.678;23.244;2023-05-11T01:36:51;94258.78;;;9.28;100.00
9277;BME280;4676;42.678;23.244;2023-05-11T01:39:35;94259.66;;;9.27;100.00
9277;BME280;4676;42.678;23.244;2023-05-11T01:42:07;94256.66;;;9.16;100.00
9277;BME280;4676;42.678;23.244;2023-05-11T01:44:36;94258.16;;;9.21;100.00
9277;BME280;4676;42.678;23.244;2023-05-11T01:47:07;94259.56;;;9.30;100.00
9277;BME280;4676;42.678;23.244;2023-05-11T01:49:36;94260.59;;;9.24;100.00
9277;BME280;4676;42.678;23.244;2023-05-11T01:52:06;94261.25;;;9.29;100.00
9277;BME280;4676;42.678;23.244;2023-05-11T01:54:35;94259.66;;;9.27;100.00
9277;BME280;4676;42.678;23.244;2023-05-11T01:57:04;94266.31;;;9.29;100.00
9277;BME280;4676;42.678;23.244;2023-05-11T01:59:31;94262.16;;;9.28;100.00
9277;BME280;4676;42.678;23.244;2023-05-11T02:01:59;94266.31;;;9.29;100.00
9277;BME280;4676;42.678;23.244;2023-05-11T02:04:28;94262.88;;;9.32;100.00
9277;BME280;4676;42.678;23.244;2023-05-11T02:06:58;94252.81;;;9.30;100.00
9277;BME280;4676;42.678;23.244;2023-05-11T02:09:25;94256.47;;;9.22;100.00
9277;BME280;4676;42.678;23.244;2023-05-11T02:11:54;94256.19;;;9.29;100.00
9277;BME280;4676;42.678;23.244;2023-05-11T02:14:23;94253.78;;;9.26;100.00
9277;BME280;4676;42.678;23.244;2023-05-11T02:16:53;94252.88;;;9.29;100.00
9277;BME280;4676;42.678;23.244;2023-05-11T02:19:21;94254.59;;;9.27;100.00
9277;BME280;4676;42.678;23.244;2023-05-11T02:21:51;94252.16;;;9.25;100.00
9277;BME280;4676;42.678;23.244;2023-05-11T02:24:19;94251.03;;;9.32;100.00
9277;BME280;4676;42.678;23.244;2023-05-11T02:26:46;94248.88;;;9.22;100.00
9277;BME280;4676;42.678;23.244;2023-05-11T02:29:13;94253.97;;;9.20;100.00
9277;BME280;4676;42.678;23.244;2023-05-11T02:31:42;94251.44;;;9.20;100.00
9277;BME280;4676;42.678;23.244;2023-05-11T02:34:17;94247.38;;;9.16;100.00
9277;BME280;4676;42.678;23.244;2023-05-11T02:36:47;94253.44;;;9.11;100.00
9277;BME280;4676;42.678;23.244;2023-05-11T02:39:18;94248.41;;;9.11;100.00
9277;BME280;4676;42.678;23.244;2023-05-11T02:41:50;94250.03;;;9.12;100.00
9277;BME280;4676;42.678;23.244;2023-05-11T02:44:21;94251.75;;;9.11;100.00
9277;BME280;4676;42.678;23.244;2023-05-11T02:46:50;94254.31;;;9.10;100.00
9277;BME280;4676;42.678;23.244;2023-05-11T02:49:20;94254.56;;;9.28;100.00
9277;BME280;4676;42.678;23.244;2023-05-11T02:51:49;94248.09;;;9.20;100.00
9277;BME280;4676;42.678;23.244;2023-05-11T02:54:19;94250.47;;;9.24;100.00
9277;BME280;4676;42.678;23.244;2023-05-11T02:56:48;94249.69;;;9.22;100.00
9277;BME280;4676;42.678;23.244;2023-05-11T02:59:15;94254.22;;;9.39;100.00
9277;BME280;4676;42.678;23.244;2023-05-11T03:01:42;94257.06;;;9.54;100.00
9277;BME280;4676;42.678;23.244;2023-05-11T03:04:10;94256.19;;;9.56;100.00
9277;BME280;4676;42.678;23.244;2023-05-11T03:06:36;94233.09;;;9.40;100.00
9277;BME280;4676;42.678;23.244;2023-05-11T03:09:03;94250.41;;;9.52;100.00
9277;BME280;4676;42.678;23.244;2023-05-11T03:11:32;94257.31;;;9.47;100.00
9277;BME280;4676;42.678;23.244;2023-05-11T03:14:00;94256.06;;;9.34;100.00
9277;BME280;4676;42.678;23.244;2023-05-11T03:16:28;94262.28;;;9.24;100.00
9277;BME280;4676;42.678;23.244;2023-05-11T03:18:55;94256.47;;;9.22;100.00
9277;BME280;4676;42.678;23.244;2023-05-11T03:21:23;94263.50;;;9.12;100.00
9277;BME280;4676;42.678;23.244;2023-05-11T03:23:51;94256.16;;;9.04;100.00
9277;BME280;4676;42.678;23.244;2023-05-11T03:26:19;94260.47;;;9.01;100.00
9277;BME280;4676;42.678;23.244;2023-05-11T03:28:49;94260.44;;;9.02;100.00
9277;BME280;4676;42.678;23.244;2023-05-11T03:31:18;94256.31;;;9.00;100.00
9277;BME280;4676;42.678;23.244;2023-05-11T03:33:44;94264.03;;;8.95;100.00
9277;BME280;4676;42.678;23.244;2023-05-11T03:36:11;94263.84;;;9.01;100.00
9277;BME280;4676;42.678;23.244;2023-05-11T03:38:39;94261.59;;;8.92;100.00
9277;BME280;4676;42.678;23.244;2023-05-11T03:41:06;94265.97;;;8.87;100.00
9277;BME280;4676;42.678;23.244;2023-05-11T03:43:34;94272.44;;;8.96;100.00
9277;BME280;4676;42.678;23.244;2023-05-11T03:46:04;94269.38;;;8.86;100.00
9277;BME280;4676;42.678;23.244;2023-05-11T03:48:31;94268.47;;;8.89;100.00
9277;BME280;4676;42.678;23.244;2023-05-11T03:50:58;94268.41;;;8.90;100.00
9277;BME280;4676;42.678;23.244;2023-05-11T03:53:25;94271.75;;;8.91;100.00
9277;BME280;4676;42.678;23.244;2023-05-11T03:55:52;94275.31;;;8.85;100.00
9277;BME280;4676;42.678;23.244;2023-05-11T03:58:19;94274.44;;;8.86;100.00
9277;BME280;4676;42.678;23.244;2023-05-11T04:00:46;94280.41;;;8.84;100.00
9277;BME280;4676;42.678;23.244;2023-05-11T04:03:14;94274.56;;;8.82;100.00
9277;BME280;4676;42.678;23.244;2023-05-11T04:05:41;94277.31;;;8.74;100.00
9277;BME280;4676;42.678;23.244;2023-05-11T04:08:08;94273.38;;;8.66;100.00
9277;BME280;4676;42.678;23.244;2023-05-11T04:10:35;94283.75;;;8.57;100.00
9277;BME280;4676;42.678;23.244;2023-05-11T04:13:02;94234.88;;;8.30;100.00
9277;BME280;4676;42.678;23.244;2023-05-11T04:15:29;94283.88;;;8.52;100.00
9277;BME280;4676;42.678;23.244;2023-05-11T04:17:56;94287.22;;;8.52;100.00
9277;BME280;4676;42.678;23.244;2023-05-11T04:20:24;94288.81;;;8.57;100.00
9277;BME280;4676;42.678;23.244;2023-05-11T04:22:51;94285.31;;;8.61;100.00
9277;BME280;4676;42.678;23.244;2023-05-11T04:25:17;94282.88;;;8.58;100.00
9277;BME280;4676;42.678;23.244;2023-05-11T04:27:44;94282.09;;;8.56;100.00
9277;BME280;4676;42.678;23.244;2023-05-11T04:30:11;94293.88;;;8.55;100.00
9277;BME280;4676;42.678;23.244;2023-05-11T04:32:38;94296.34;;;8.58;100.00
9277;BME280;4676;42.678;23.244;2023-05-11T04:35:05;94296.50;;;8.52;100.00
9277;BME280;4676;42.678;23.244;2023-05-11T04:37:33;94298.28;;;8.48;100.00
9277;BME280;4676;42.678;23.244;2023-05-11T04:40:00;94281.84;;;8.35;100.00
9277;BME280;4676;42.678;23.244;2023-05-11T04:42:26;94299.94;;;8.49;100.00
9277;BME280;4676;42.678;23.244;2023-05-11T04:44:55;94303.53;;;8.42;100.00
9277;BME280;4676;42.678;23.244;2023-05-11T04:47:21;94307.88;;;8.37;100.00
9277;BME280;4676;42.678;23.244;2023-05-11T04:49:48;94302.81;;;8.37;100.00
9277;BME280;4676;42.678;23.244;2023-05-11T04:52:15;94308.47;;;8.47;100.00
9277;BME280;4676;42.678;23.244;2023-05-11T04:54:43;94304.16;;;8.50;100.00
9277;BME280;4676;42.678;23.244;2023-05-11T04:57:10;94282.50;;;8.42;100.00
9277;BME280;4676;42.678;23.244;2023-05-11T04:59:36;94309.28;;;8.47;100.00
9277;BME280;4676;42.678;23.244;2023-05-11T05:02:03;94305.03;;;8.48;100.00
9277;BME280;4676;42.678;23.244;2023-05-11T05:04:30;94315.84;;;8.53;100.00
9277;BME280;4676;42.678;23.244;2023-05-11T05:06:56;94318.59;;;8.45;100.00
9277;BME280;4676;42.678;23.244;2023-05-11T05:09:23;94317.53;;;8.52;100.00
9277;BME280;4676;42.678;23.244;2023-05-11T05:11:51;94322.59;;;8.52;100.00
9277;BME280;4676;42.678;23.244;2023-05-11T05:14:18;94317.31;;;8.62;100.00
9277;BME280;4676;42.678;23.244;2023-05-11T05:16:45;94323.63;;;8.75;100.00
9277;BME280;4676;42.678;23.244;2023-05-11T05:19:11;94323.63;;;8.75;100.00
9277;BME280;4676;42.678;23.244;2023-05-11T05:21:38;94324.91;;;8.88;100.00
9277;BME280;4676;42.678;23.244;2023-05-11T05:24:05;94319.00;;;8.89;100.00
9277;BME280;4676;42.678;23.244;2023-05-11T05:26:35;94324.00;;;8.90;100.00
9277;BME280;4676;42.678;23.244;2023-05-11T05:29:03;94319.97;;;8.85;100.00
9277;BME280;4676;42.678;23.244;2023-05-11T05:31:30;94326.03;;;8.79;100.00
9277;BME280;4676;42.678;23.244;2023-05-11T05:33:57;94328.41;;;8.84;100.00
9277;BME280;4676;42.678;23.244;2023-05-11T05:36:24;94325.00;;;8.86;100.00
9277;BME280;4676;42.678;23.244;2023-05-11T05:38:50;94326.50;;;8.92;100.00
9277;BME280;4676;42.678;23.244;2023-05-11T05:41:17;94329.16;;;8.87;100.00
9277;BME280;4676;42.678;23.244;2023-05-11T05:43:46;94321.88;;;8.77;100.00
9277;BME280;4676;42.678;23.244;2023-05-11T05:46:15;94322.69;;;8.79;100.00
9277;BME280;4676;42.678;23.244;2023-05-11T05:48:41;94327.63;;;8.82;100.00
9277;BME280;4676;42.678;23.244;2023-05-11T05:51:08;94319.84;;;8.89;100.00
9277;BME280;4676;42.678;23.244;2023-05-11T05:53:35;94333.72;;;9.04;100.00
9277;BME280;4676;42.678;23.244;2023-05-11T05:56:02;94337.53;;;9.17;100.00
9277;BME280;4676;42.678;23.244;2023-05-11T05:58:29;94332.91;;;9.30;100.00
9277;BME280;4676;42.678;23.244;2023-05-11T06:00:56;94340.03;;;9.43;100.00
9277;BME280;4676;42.678;23.244;2023-05-11T06:03:24;94339.72;;;9.54;100.00
9277;BME280;4676;42.678;23.244;2023-05-11T06:05:51;94341.47;;;9.52;100.00
9277;BME280;4676;42.678;23.244;2023-05-11T06:08:17;94293.47;;;9.24;100.00
9277;BME280;4676;42.678;23.244;2023-05-11T06:10:44;94327.47;;;9.42;100.00
9277;BME280;4676;42.678;23.244;2023-05-11T06:13:11;94337.19;;;9.54;100.00
9277;BME280;4676;42.678;23.244;2023-05-11T06:15:37;94349.09;;;9.50;100.00
9277;BME280;4676;42.678;23.244;2023-05-11T06:18:04;94303.06;;;9.15;100.00
9277;BME280;4676;42.678;23.244;2023-05-11T06:20:32;94351.44;;;9.57;100.00
9277;BME280;4676;42.678;23.244;2023-05-11T06:22:59;94355.06;;;9.49;100.00
9277;BME280;4676;42.678;23.244;2023-05-11T06:25:25;94357.41;;;9.54;100.00
9277;BME280;4676;42.678;23.244;2023-05-11T06:27:53;94361.50;;;9.58;100.00
9277;BME280;4676;42.678;23.244;2023-05-11T06:30:19;94356.44;;;9.58;100.00
9277;BME280;4676;42.678;23.244;2023-05-11T06:32:46;94364.47;;;9.44;100.00
9277;BME280;4676;42.678;23.244;2023-05-11T06:35:13;94362.28;;;9.34;100.00
9277;BME280;4676;42.678;23.244;2023-05-11T06:37:41;94359.94;;;9.28;100.00
9277;BME280;4676;42.678;23.244;2023-05-11T06:40:08;94363.16;;;9.33;100.00
9277;BME280;4676;42.678;23.244;2023-05-11T06:42:35;94361.25;;;9.39;100.00
9277;BME280;4676;42.678;23.244;2023-05-11T06:45:02;94358.06;;;9.34;100.00
9277;BME280;4676;42.678;23.244;2023-05-11T06:47:29;94359.66;;;9.37;100.00
9277;BME280;4676;42.678;23.244;2023-05-11T06:49:56;94358.00;;;9.36;100.00
9277;BME280;4676;42.678;23.244;2023-05-11T06:52:22;94358.06;;;9.34;100.00
9277;BME280;4676;42.678;23.244;2023-05-11T06:54:50;94329.06;;;9.18;100.00
9277;BME280;4676;42.678;23.244;2023-05-11T06:57:17;94341.63;;;9.21;100.00
9277;BME280;4676;42.678;23.244;2023-05-11T06:59:44;94358.25;;;9.54;100.00
9277;BME280;4676;42.678;23.244;2023-05-11T07:02:11;94365.81;;;9.56;100.00
9277;BME280;4676;42.678;23.244;2023-05-11T07:04:37;94360.44;;;9.65;100.00
9277;BME280;4676;42.678;23.244;2023-05-11T07:07:04;94351.28;;;9.61;100.00
9277;BME280;4676;42.678;23.244;2023-05-11T07:09:31;94371.63;;;9.84;100.00
9277;BME280;4676;42.678;23.244;2023-05-11T07:11:59;94372.03;;;9.97;100.00
9277;BME280;4676;42.678;23.244;2023-05-11T07:14:27;94365.84;;;10.06;100.00
9277;BME280;4676;42.678;23.244;2023-05-11T07:16:53;94364.63;;;10.17;100.00
9277;BME280;4676;42.678;23.244;2023-05-11T07:19:20;94383.97;;;10.20;100.00
9277;BME280;4676;42.678;23.244;2023-05-11T07:21:47;94375.66;;;10.16;100.00
9277;BME280;4676;42.678;23.244;2023-05-11T07:24:14;94375.69;;;10.15;100.00
9277;BME280;4676;42.678;23.244;2023-05-11T07:26:40;94377.34;;;10.16;100.00
9277;BME280;4676;42.678;23.244;2023-05-11T07:29:08;94375.41;;;10.24;100.00
9277;BME280;4676;42.678;23.244;2023-05-11T07:31:35;94373.75;;;10.46;100.00
9277;BME280;4676;42.678;23.244;2023-05-11T07:34:02;94384.34;;;10.34;100.00
9277;BME280;4676;42.678;23.244;2023-05-11T07:36:29;94376.50;;;10.17;100.00
9277;BME280;4676;42.678;23.244;2023-05-11T07:38:55;94379.16;;;10.37;100.00
9277;BME280;4676;42.678;23.244;2023-05-11T07:41:23;94380.72;;;10.64;100.00
9277;BME280;4676;42.678;23.244;2023-05-11T07:43:51;94378.94;;;10.66;100.00
9277;BME280;4676;42.678;23.244;2023-05-11T07:46:19;94383.13;;;10.67;100.00
9277;BME280;4676;42.678;23.244;2023-05-11T07:48:45;94384.00;;;10.66;100.00
9277;BME280;4676;42.678;23.244;2023-05-11T07:51:12;94384.22;;;10.60;100.00
9277;BME280;4676;42.678;23.244;2023-05-11T07:53:39;94385.56;;;10.70;100.00
9277;BME280;4676;42.678;23.244;2023-05-11T07:56:06;94389.97;;;10.65;100.00
9277;BME280;4676;42.678;23.244;2023-05-11T07:58:34;94388.53;;;10.58;100.00
9277;BME280;4676;42.678;23.244;2023-05-11T08:01:00;94381.59;;;10.63;100.00
9277;BME280;4676;42.678;23.244;2023-05-11T08:03:28;94385.00;;;10.85;100.00
9277;BME280;4676;42.678;23.244;2023-05-11T08:05:56;94382.53;;;11.07;100.00
9277;BME280;4676;42.678;23.244;2023-05-11T08:08:23;94387.44;;;10.88;100.00
9277;BME280;4676;42.678;23.244;2023-05-11T08:10:50;94377.38;;;10.87;100.00
9277;BME280;4676;42.678;23.244;2023-05-11T08:13:17;94378.44;;;11.03;100.00
9277;BME280;4676;42.678;23.244;2023-05-11T08:15:44;94385.41;;;11.20;100.00
9277;BME280;4676;42.678;23.244;2023-05-11T08:18:10;94387.63;;;11.06;100.00
9277;BME280;4676;42.678;23.244;2023-05-11T08:20:38;94377.47;;;11.29;100.00
9277;BME280;4676;42.678;23.244;2023-05-11T08:23:06;94372.56;;;11.46;100.00
9277;BME280;4676;42.678;23.244;2023-05-11T08:25:33;94381.81;;;11.90;100.00
9277;BME280;4676;42.678;23.244;2023-05-11T08:28:00;94386.19;;;12.07;100.00
9277;BME280;4676;42.678;23.244;2023-05-11T08:30:27;94386.03;;;11.68;100.00
9277;BME280;4676;42.678;23.244;2023-05-11T08:32:53;94395.22;;;11.50;100.00
9277;BME280;4676;42.678;23.244;2023-05-11T08:35:20;94392.03;;;11.24;100.00
9277;BME280;4676;42.678;23.244;2023-05-11T08:37:50;94392.31;;;11.38;100.00
9277;BME280;4676;42.678;23.244;2023-05-11T08:40:18;94393.63;;;11.70;100.00
9277;BME280;4676;42.678;23.244;2023-05-11T08:42:45;94388.31;;;11.54;100.00
9277;BME280;4676;42.678;23.244;2023-05-11T08:45:14;94386.84;;;11.48;100.00
9277;BME280;4676;42.678;23.244;2023-05-11T08:47:42;94386.00;;;11.48;100.00
9277;BME280;4676;42.678;23.244;2023-05-11T08:50:10;94390.97;;;11.29;100.00
9277;BME280;4676;42.678;23.244;2023-05-11T08:52:37;94382.41;;;11.32;100.00
9277;BME280;4676;42.678;23.244;2023-05-11T08:55:07;94384.47;;;11.44;100.00
9277;BME280;4676;42.678;23.244;2023-05-11T08:57:35;94381.31;;;11.61;100.00
9277;BME280;4676;42.678;23.244;2023-05-11T09:00:02;94382.59;;;11.92;100.00
9277;BME280;4676;42.678;23.244;2023-05-11T09:02:30;94364.09;;;11.89;100.00
9277;BME280;4676;42.678;23.244;2023-05-11T09:04:57;94355.66;;;12.09;100.00
9277;BME280;4676;42.678;23.244;2023-05-11T09:07:25;94373.06;;;12.38;100.00
9277;BME280;4676;42.678;23.244;2023-05-11T09:09:53;94375.19;;;12.47;100.00
9277;BME280;4676;42.678;23.244;2023-05-11T09:12:22;94377.09;;;12.42;100.00
9277;BME280;4676;42.678;23.244;2023-05-11T09:14:50;94374.63;;;12.00;99.94
9277;BME280;4676;42.678;23.244;2023-05-11T09:17:17;94361.78;;;11.83;100.00
9277;BME280;4676;42.678;23.244;2023-05-11T09:19:57;94377.13;;;12.01;100.00
9277;BME280;4676;42.678;23.244;2023-05-11T09:22:24;94377.13;;;12.22;100.00
9277;BME280;4676;42.678;23.244;2023-05-11T09:24:51;94369.38;;;12.05;100.00
9277;BME280;4676;42.678;23.244;2023-05-11T09:27:18;94379.84;;;11.97;100.00
9277;BME280;4676;42.678;23.244;2023-05-11T09:29:46;94375.47;;;12.21;100.00
9277;BME280;4676;42.678;23.244;2023-05-11T09:32:13;94374.91;;;12.53;100.00
9277;BME280;4676;42.678;23.244;2023-05-11T09:34:40;94359.22;;;12.82;100.00
9277;BME280;4676;42.678;23.244;2023-05-11T09:37:15;94365.50;;;12.94;100.00
9277;BME280;4676;42.678;23.244;2023-05-11T09:39:42;94376.22;;;12.82;98.96
9277;BME280;4676;42.678;23.244;2023-05-11T09:42:16;94366.88;;;13.01;100.00
9277;BME280;4676;42.678;23.244;2023-05-11T09:44:43;94363.94;;;13.29;100.00
9277;BME280;4676;42.678;23.244;2023-05-11T09:47:16;94358.22;;;13.24;99.54
9277;BME280;4676;42.678;23.244;2023-05-11T09:49:44;94358.34;;;13.21;99.68
9277;BME280;4676;42.678;23.244;2023-05-11T09:52:13;94360.41;;;13.31;100.00
9277;BME280;4676;42.678;23.244;2023-05-11T09:54:41;94360.34;;;13.33;99.13
9277;BME280;4676;42.678;23.244;2023-05-11T09:57:22;94358.50;;;13.18;98.12
9277;BME280;4676;42.678;23.244;2023-05-11T09:59:49;94353.47;;;12.97;98.11
9277;BME280;4676;42.678;23.244;2023-05-11T10:02:19;94356.56;;;12.46;100.00
9277;BME280;4676;42.678;23.244;2023-05-11T10:04:47;94351.16;;;12.54;100.00
9277;BME280;4676;42.678;23.244;2023-05-11T10:07:24;94341.19;;;12.49;100.00
9277;BME280;4676;42.678;23.244;2023-05-11T10:09:52;94354.50;;;12.36;100.00
9277;BME280;4676;42.678;23.244;2023-05-11T10:12:21;94348.47;;;12.38;100.00
9277;BME280;4676;42.678;23.244;2023-05-11T10:14:53;94347.22;;;12.08;100.00
9277;BME280;4676;42.678;23.244;2023-05-11T10:17:21;94344.59;;;11.89;100.00
9277;BME280;4676;42.678;23.244;2023-05-11T10:19:49;94317.97;;;12.18;100.00
9277;BME280;4676;42.678;23.244;2023-05-11T10:22:16;94335.94;;;12.34;100.00
9277;BME280;4676;42.678;23.244;2023-05-11T10:24:43;94337.38;;;12.21;100.00
9277;BME280;4676;42.678;23.244;2023-05-11T10:27:11;94347.78;;;12.15;100.00
9277;BME280;4676;42.678;23.244;2023-05-11T10:29:38;94324.91;;;12.15;100.00
9277;BME280;4676;42.678;23.244;2023-05-11T10:32:06;94328.75;;;12.43;100.00
9277;BME280;4676;42.678;23.244;2023-05-11T10:34:35;94329.25;;;12.51;100.00
9277;BME280;4676;42.678;23.244;2023-05-11T10:37:04;94311.59;;;12.48;100.00
9277;BME280;4676;42.678;23.244;2023-05-11T10:39:31;94312.75;;;12.79;100.00
9277;BME280;4676;42.678;23.244;2023-05-11T10:42:10;94321.72;;;12.87;100.00
9277;BME280;4676;42.678;23.244;2023-05-11T10:44:52;94317.13;;;12.57;100.00
9277;BME280;4676;42.678;23.244;2023-05-11T10:47:43;94314.34;;;12.81;100.00
9277;BME280;4676;42.678;23.244;2023-05-11T10:50:24;94320.09;;;12.85;100.00
9277;BME280;4676;42.678;23.244;2023-05-11T10:53:11;94338.69;;;12.87;100.00
9277;BME280;4676;42.678;23.244;2023-05-11T10:55:55;94327.97;;;12.80;98.92
9277;BME280;4676;42.678;23.244;2023-05-11T10:58:40;94324.44;;;12.83;100.00
9277;BME280;4676;42.678;23.244;2023-05-11T11:01:24;94325.75;;;12.91;100.00
9277;BME280;4676;42.678;23.244;2023-05-11T11:03:57;94315.44;;;13.13;100.00
9277;BME280;4676;42.678;23.244;2023-05-11T11:06:27;94324.38;;;13.03;96.92
9277;BME280;4676;42.678;23.244;2023-05-11T11:08:55;94326.69;;;12.70;99.51
9277;BME280;4676;42.678;23.244;2023-05-11T11:11:31;94326.31;;;12.79;100.00
9277;BME280;4676;42.678;23.244;2023-05-11T11:13:58;94300.00;;;12.80;98.77
9277;BME280;4676;42.678;23.244;2023-05-11T11:16:27;94320.72;;;12.52;98.76
9277;BME280;4676;42.678;23.244;2023-05-11T11:21:56;94312.28;;;12.71;100.00
9277;BME280;4676;42.678;23.244;2023-05-11T11:24:43;94283.84;;;12.63;100.00
9277;BME280;4676;42.678;23.244;2023-05-11T11:27:10;94311.25;;;12.93;100.00
9277;BME280;4676;42.678;23.244;2023-05-11T11:29:37;94300.88;;;12.79;97.15
9277;BME280;4676;42.678;23.244;2023-05-11T11:32:34;94307.69;;;12.79;100.00
9277;BME280;4676;42.678;23.244;2023-05-11T11:35:01;94305.88;;;12.81;99.55
9277;BME280;4676;42.678;23.244;2023-05-11T11:37:58;94309.66;;;12.72;97.50
9277;BME280;4676;42.678;23.244;2023-05-11T11:40:34;94307.41;;;12.66;99.72
9277;BME280;4676;42.678;23.244;2023-05-11T11:43:09;94300.94;;;12.78;100.00
9277;BME280;4676;42.678;23.244;2023-05-11T11:45:37;94300.03;;;12.79;96.68
9277;BME280;4676;42.678;23.244;2023-05-11T11:48:05;94304.44;;;13.13;98.93
9277;BME280;4676;42.678;23.244;2023-05-11T11:50:32;94298.34;;;13.34;97.23
9277;BME280;4676;42.678;23.244;2023-05-11T11:53:01;94309.00;;;13.42;94.38
9277;BME280;4676;42.678;23.244;2023-05-11T11:55:44;94304.44;;;13.48;91.30
9277;BME280;4676;42.678;23.244;2023-05-11T11:58:12;94302.56;;;13.52;93.68
9277;BME280;4676;42.678;23.244;2023-05-11T12:00:59;94306.75;;;12.98;92.12
9277;BME280;4676;42.678;23.244;2023-05-11T12:03:25;94300.03;;;12.97;95.00
9277;BME280;4676;42.678;23.244;2023-05-11T12:05:54;94303.19;;;13.02;94.86
9277;BME280;4676;42.678;23.244;2023-05-11T12:08:28;94293.00;;;13.02;97.95
9277;BME280;4676;42.678;23.244;2023-05-11T12:10:56;94240.47;;;12.66;94.88
9277;BME280;4676;42.678;23.244;2023-05-11T12:13:23;94300.25;;;12.93;96.09
9277;BME280;4676;42.678;23.244;2023-05-11T12:16:06;94296.47;;;13.01;99.55
9277;BME280;4676;42.678;23.244;2023-05-11T12:18:33;94290.75;;;13.15;98.59
9277;BME280;4676;42.678;23.244;2023-05-11T12:21:00;94280.81;;;13.28;97.61
9277;BME280;4676;42.678;23.244;2023-05-11T12:23:29;94284.41;;;13.24;96.22
9277;BME280;4676;42.678;23.244;2023-05-11T12:26:02;94281.94;;;13.22;93.68
9277;BME280;4676;42.678;23.244;2023-05-11T12:28:29;94283.47;;;13.26;94.20
9277;BME280;4676;42.678;23.244;2023-05-11T12:30:56;94280.03;;;13.09;92.29
9277;BME280;4676;42.678;23.244;2023-05-11T12:33:23;94272.44;;;13.26;93.76
9277;BME280;4676;42.678;23.244;2023-05-11T12:35:51;94275.06;;;13.41;92.93
9277;BME280;4676;42.678;23.244;2023-05-11T12:38:18;94278.28;;;13.28;93.10
9277;BME280;4676;42.678;23.244;2023-05-11T12:40:47;94269.00;;;13.08;94.95
9277;BME280;4676;42.678;23.244;2023-05-11T12:43:16;94271.97;;;12.99;94.24
9277;BME280;4676;42.678;23.244;2023-05-11T12:45:43;94269.19;;;12.86;98.41
9277;BME280;4676;42.678;23.244;2023-05-11T12:48:11;94266.63;;;12.86;99.84
9277;BME280;4676;42.678;23.244;2023-05-11T12:50:39;94271.44;;;12.92;100.00
9277;BME280;4676;42.678;23.244;2023-05-11T12:53:12;94247.25;;;12.84;100.00
9277;BME280;4676;42.678;23.244;2023-05-11T12:55:40;94252.13;;;12.88;100.00
9277;BME280;4676;42.678;23.244;2023-05-11T12:58:11;94255.34;;;12.92;100.00
9277;BME280;4676;42.678;23.244;2023-05-11T13:00:50;94244.97;;;13.15;100.00
9277;BME280;4676;42.678;23.244;2023-05-11T13:03:22;94252.81;;;13.11;99.17
9277;BME280;4676;42.678;23.244;2023-05-11T13:05:49;94245.28;;;13.08;100.00
9277;BME280;4676;42.678;23.244;2023-05-11T13:08:18;94247.22;;;13.02;96.65
9277;BME280;4676;42.678;23.244;2023-05-11T13:10:45;94240.81;;;13.13;100.00
9277;BME280;4676;42.678;23.244;2023-05-11T13:13:25;94237.84;;;13.22;97.26
9277;BME280;4676;42.678;23.244;2023-05-11T13:15:52;94236.44;;;13.33;98.59
9277;BME280;4676;42.678;23.244;2023-05-11T13:18:20;94238.91;;;13.18;95.55
9277;BME280;4676;42.678;23.244;2023-05-11T13:20:48;94240.56;;;13.19;97.62